Impacts TAF Board
For situational awareness. Not to be used for flight planning purposes.
IDs:

KBCE - Bryce Canyon Arpt, UT, US

Issued at 0538 UTC 30 Oct 2020
Updated at 0749 UTC 30 Oct 2020
Potential Impact None Slight Moderate High
Time0653Z 30/08Z 30/09Z 30/10Z 30/11Z 30/12Z 30/13Z 30/14Z 30/15Z 30/16Z 30/17Z 30/18Z 30/19Z 30/20Z>>
Type OBS PRVL PRVL PRVL PRVL PRVL PRVL PRVL PRVL PRVL PRVL PRVL PRVL PRVL
VIS 10 >6 >6 >6 >6 >6 >6 >6 >6 >6 >6 >6 >6 >6
CIG -- -- -- -- -- -- -- -- -- -- -- -- -- --
Cover CLR SKC SKC SKC SKC SKC SKC SKC SKC SKC SKC SKC SKC SKC
FltCat VFR VFR VFR VFR VFR VFR VFR VFR VFR VFR VFR VFR VFR VFR
WX -- -- -- -- -- -- -- -- -- -- -- -- -- --
WDir 270 260 260 260 260 260 260 260 260 130 130 130 130 130
WSpd 9 7 7 7 7 7 7 7 7 6 6 6 6 6
WGst -- -- -- -- -- -- -- -- -- -- -- -- -- --
Raw TAF
KBCE 300538Z 3006/3106 26007KT P6SM SKC
  FM301600 13006KT P6SM SKC
  FM310000 27006KT P6SM SKC


Raw METAR
KBCE 300653Z AUTO 27009KT 10SM CLR M03/M10 A3036 RMK AO2 SLP225 T10281100 401441078
KBCE 300553Z AUTO 26007KT 10SM CLR M03/M10 A3037 RMK AO2 SLPNO T10281100 10122 21056 51004
KBCE 300453Z AUTO 26005KT 10SM CLR M05/M12 A3037 RMK AO2 SLP247 T10501122

METAR Board
Radar Display
Forecast Discussion
For situational awareness. Not to be used for flight planning purposes.